sensor_id;sensor_type;location;lat;lon;timestamp;temperature;humidity
56115;DHT22;41988;53.020;6.576;2022-08-20T00:01:06;18.80;99.90
56115;DHT22;41988;53.020;6.576;2022-08-20T00:03:51;18.70;99.90
56115;DHT22;41988;53.020;6.576;2022-08-20T00:09:20;18.80;99.90
56115;DHT22;41988;53.020;6.576;2022-08-20T00:12:05;18.60;99.90
56115;DHT22;41988;53.020;6.576;2022-08-20T00:14:49;18.70;99.90
56115;DHT22;41988;53.020;6.576;2022-08-20T00:17:33;19.10;99.90
56115;DHT22;41988;53.020;6.576;2022-08-20T00:20:22;19.40;99.90
56115;DHT22;41988;53.020;6.576;2022-08-20T00:23:06;18.80;99.90
56115;DHT22;41988;53.020;6.576;2022-08-20T00:25:52;18.80;99.90
56115;DHT22;41988;53.020;6.576;2022-08-20T00:28:36;18.60;99.90
56115;DHT22;41988;53.020;6.576;2022-08-20T00:31:23;18.60;99.90
56115;DHT22;41988;53.020;6.576;2022-08-20T00:34:07;18.50;99.90
56115;DHT22;41988;53.020;6.576;2022-08-20T00:36:51;18.50;99.90
56115;DHT22;41988;53.020;6.576;2022-08-20T00:39:35;18.40;99.90
56115;DHT22;41988;53.020;6.576;2022-08-20T00:42:19;18.40;99.90
56115;DHT22;41988;53.020;6.576;2022-08-20T00:45:04;18.50;99.90
56115;DHT22;41988;53.020;6.576;2022-08-20T00:47:48;18.40;99.90
56115;DHT22;41988;53.020;6.576;2022-08-20T00:50:35;18.40;99.90
56115;DHT22;41988;53.020;6.576;2022-08-20T00:53:22;18.40;99.90
56115;DHT22;41988;53.020;6.576;2022-08-20T00:56:10;18.30;99.90
56115;DHT22;41988;53.020;6.576;2022-08-20T00:58:55;18.40;99.90
56115;DHT22;41988;53.020;6.576;2022-08-20T01:01:41;18.30;99.90
56115;DHT22;41988;53.020;6.576;2022-08-20T01:04:28;18.30;99.90
56115;DHT22;41988;53.020;6.576;2022-08-20T01:07:14;18.10;99.90
56115;DHT22;41988;53.020;6.576;2022-08-20T01:09:59;18.10;99.90
56115;DHT22;41988;53.020;6.576;2022-08-20T01:12:46;18.30;99.90
56115;DHT22;41988;53.020;6.576;2022-08-20T01:15:31;18.40;99.90
56115;DHT22;41988;53.020;6.576;2022-08-20T01:18:19;18.00;99.90
56115;DHT22;41988;53.020;6.576;2022-08-20T01:21:05;18.10;99.90
56115;DHT22;41988;53.020;6.576;2022-08-20T01:23:53;18.10;99.90
56115;DHT22;41988;53.020;6.576;2022-08-20T01:26:41;18.00;99.90
56115;DHT22;41988;53.020;6.576;2022-08-20T01:29:33;18.10;99.90
56115;DHT22;41988;53.020;6.576;2022-08-20T01:32:18;17.80;99.90
56115;DHT22;41988;53.020;6.576;2022-08-20T01:35:03;17.70;99.90
56115;DHT22;41988;53.020;6.576;2022-08-20T01:43:30;17.60;99.90
56115;DHT22;41988;53.020;6.576;2022-08-20T01:46:16;17.50;99.90
56115;DHT22;41988;53.020;6.576;2022-08-20T01:49:15;17.70;99.90
56115;DHT22;41988;53.020;6.576;2022-08-20T01:52:06;18.00;99.90
56115;DHT22;41988;53.020;6.576;2022-08-20T01:54:51;17.60;99.90
56115;DHT22;41988;53.020;6.576;2022-08-20T01:57:38;17.70;99.90
56115;DHT22;41988;53.020;6.576;2022-08-20T02:00:23;17.50;99.90
56115;DHT22;41988;53.020;6.576;2022-08-20T02:03:08;17.70;99.90
56115;DHT22;41988;53.020;6.576;2022-08-20T02:05:52;17.90;99.90
56115;DHT22;41988;53.020;6.576;2022-08-20T02:11:22;18.30;99.90
56115;DHT22;41988;53.020;6.576;2022-08-20T02:14:09;17.60;99.90
56115;DHT22;41988;53.020;6.576;2022-08-20T02:16:53;17.60;99.90
56115;DHT22;41988;53.020;6.576;2022-08-20T02:19:50;17.50;99.90
56115;DHT22;41988;53.020;6.576;2022-08-20T02:22:51;17.50;99.90
56115;DHT22;41988;53.020;6.576;2022-08-20T02:25:37;17.60;99.90
56115;DHT22;41988;53.020;6.576;2022-08-20T02:31:07;17.20;99.90
56115;DHT22;41988;53.020;6.576;2022-08-20T02:33:51;17.60;99.90
56115;DHT22;41988;53.020;6.576;2022-08-20T02:36:37;17.70;99.90
56115;DHT22;41988;53.020;6.576;2022-08-20T02:39:21;17.50;99.90
56115;DHT22;41988;53.020;6.576;2022-08-20T02:42:06;17.70;99.90
56115;DHT22;41988;53.020;6.576;2022-08-20T02:44:50;17.50;99.90
56115;DHT22;41988;53.020;6.576;2022-08-20T02:47:34;18.20;99.90
56115;DHT22;41988;53.020;6.576;2022-08-20T02:50:19;17.30;99.90
56115;DHT22;41988;53.020;6.576;2022-08-20T02:53:04;17.40;99.90
56115;DHT22;41988;53.020;6.576;2022-08-20T02:55:49;17.60;99.90
56115;DHT22;41988;53.020;6.576;2022-08-20T02:58:33;17.20;99.90
56115;DHT22;41988;53.020;6.576;2022-08-20T03:04:03;17.00;99.90
56115;DHT22;41988;53.020;6.576;2022-08-20T03:06:47;17.20;99.90
56115;DHT22;41988;53.020;6.576;2022-08-20T03:09:31;16.90;99.90
56115;DHT22;41988;53.020;6.576;2022-08-20T03:12:15;17.50;99.90
56115;DHT22;41988;53.020;6.576;2022-08-20T03:17:44;17.20;99.90
56115;DHT22;41988;53.020;6.576;2022-08-20T03:20:29;17.10;99.90
56115;DHT22;41988;53.020;6.576;2022-08-20T03:23:15;17.10;99.90
56115;DHT22;41988;53.020;6.576;2022-08-20T03:28:44;16.90;99.90
56115;DHT22;41988;53.020;6.576;2022-08-20T03:31:28;17.10;99.90
56115;DHT22;41988;53.020;6.576;2022-08-20T03:34:13;17.10;99.90
56115;DHT22;41988;53.020;6.576;2022-08-20T03:39:41;17.10;99.90
56115;DHT22;41988;53.020;6.576;2022-08-20T03:42:26;17.00;99.90
56115;DHT22;41988;53.020;6.576;2022-08-20T03:45:11;17.70;99.90
56115;DHT22;41988;53.020;6.576;2022-08-20T03:47:56;17.20;99.90
56115;DHT22;41988;53.020;6.576;2022-08-20T03:50:42;17.00;99.90
56115;DHT22;41988;53.020;6.576;2022-08-20T03:53:27;16.80;99.90
56115;DHT22;41988;53.020;6.576;2022-08-20T03:56:15;17.20;99.90
56115;DHT22;41988;53.020;6.576;2022-08-20T03:59:00;17.00;99.90
56115;DHT22;41988;53.020;6.576;2022-08-20T04:01:44;16.80;99.90
56115;DHT22;41988;53.020;6.576;2022-08-20T04:04:28;17.10;99.90
56115;DHT22;41988;53.020;6.576;2022-08-20T04:07:17;16.80;99.90
56115;DHT22;41988;53.020;6.576;2022-08-20T04:10:06;17.00;99.90
56115;DHT22;41988;53.020;6.576;2022-08-20T04:12:52;17.10;99.90
56115;DHT22;41988;53.020;6.576;2022-08-20T04:15:36;17.30;99.90
56115;DHT22;41988;53.020;6.576;2022-08-20T04:18:23;17.00;99.90
56115;DHT22;41988;53.020;6.576;2022-08-20T04:23:53;16.90;99.90
56115;DHT22;41988;53.020;6.576;2022-08-20T04:26:38;17.00;99.90
56115;DHT22;41988;53.020;6.576;2022-08-20T04:29:22;16.90;99.90
56115;DHT22;41988;53.020;6.576;2022-08-20T04:32:07;17.00;99.90
56115;DHT22;41988;53.020;6.576;2022-08-20T04:34:51;17.50;99.90
56115;DHT22;41988;53.020;6.576;2022-08-20T04:37:40;17.00;99.90
56115;DHT22;41988;53.020;6.576;2022-08-20T04:40:25;17.70;99.90
56115;DHT22;41988;53.020;6.576;2022-08-20T04:43:34;16.80;99.90
56115;DHT22;41988;53.020;6.576;2022-08-20T04:46:19;16.80;99.90
56115;DHT22;41988;53.020;6.576;2022-08-20T04:49:05;16.60;99.90
56115;DHT22;41988;53.020;6.576;2022-08-20T04:51:49;16.70;99.90
56115;DHT22;41988;53.020;6.576;2022-08-20T04:57:18;17.40;99.90
56115;DHT22;41988;53.020;6.576;2022-08-20T05:00:12;16.70;99.90
56115;DHT22;41988;53.020;6.576;2022-08-20T05:02:58;16.60;99.90
56115;DHT22;41988;53.020;6.576;2022-08-20T05:05:43;16.90;99.90
56115;DHT22;41988;53.020;6.576;2022-08-20T05:08:31;16.60;99.90
56115;DHT22;41988;53.020;6.576;2022-08-20T05:16:44;16.60;99.90
56115;DHT22;41988;53.020;6.576;2022-08-20T05:19:28;16.50;99.90
56115;DHT22;41988;53.020;6.576;2022-08-20T05:22:12;16.70;99.90
56115;DHT22;41988;53.020;6.576;2022-08-20T05:24:56;16.50;99.90
56115;DHT22;41988;53.020;6.576;2022-08-20T05:27:42;16.20;99.90
56115;DHT22;41988;53.020;6.576;2022-08-20T05:30:29;16.50;99.90
56115;DHT22;41988;53.020;6.576;2022-08-20T05:33:21;16.50;99.90
56115;DHT22;41988;53.020;6.576;2022-08-20T05:36:06;16.40;99.90
56115;DHT22;41988;53.020;6.576;2022-08-20T05:38:50;16.00;99.90
56115;DHT22;41988;53.020;6.576;2022-08-20T05:41:37;16.20;99.90
56115;DHT22;41988;53.020;6.576;2022-08-20T05:44:22;16.30;99.90
56115;DHT22;41988;53.020;6.576;2022-08-20T05:47:09;16.10;99.90
56115;DHT22;41988;53.020;6.576;2022-08-20T05:49:53;16.40;99.90
56115;DHT22;41988;53.020;6.576;2022-08-20T05:52:38;16.20;99.90
56115;DHT22;41988;53.020;6.576;2022-08-20T05:58:14;16.50;99.90
56115;DHT22;41988;53.020;6.576;2022-08-20T06:00:59;16.40;99.90
56115;DHT22;41988;53.020;6.576;2022-08-20T06:03:43;16.90;99.90
56115;DHT22;41988;53.020;6.576;2022-08-20T06:06:46;16.60;99.90
56115;DHT22;41988;53.020;6.576;2022-08-20T06:09:32;17.40;99.90
56115;DHT22;41988;53.020;6.576;2022-08-20T06:12:16;17.00;99.90
56115;DHT22;41988;53.020;6.576;2022-08-20T06:15:01;16.70;99.90
56115;DHT22;41988;53.020;6.576;2022-08-20T06:17:45;16.80;99.90
56115;DHT22;41988;53.020;6.576;2022-08-20T06:20:29;17.10;99.90
56115;DHT22;41988;53.020;6.576;2022-08-20T06:23:13;17.50;99.90
56115;DHT22;41988;53.020;6.576;2022-08-20T06:25:58;17.30;99.90
56115;DHT22;41988;53.020;6.576;2022-08-20T06:28:42;17.30;99.90
56115;DHT22;41988;53.020;6.576;2022-08-20T06:36:57;17.70;99.90
56115;DHT22;41988;53.020;6.576;2022-08-20T06:39:42;17.90;99.90
56115;DHT22;41988;53.020;6.576;2022-08-20T06:45:17;18.60;99.90
56115;DHT22;41988;53.020;6.576;2022-08-20T06:48:06;17.90;99.90
56115;DHT22;41988;53.020;6.576;2022-08-20T06:50:51;17.80;99.90
56115;DHT22;41988;53.020;6.576;2022-08-20T06:53:36;18.00;99.90
56115;DHT22;41988;53.020;6.576;2022-08-20T06:56:20;17.90;99.90
56115;DHT22;41988;53.020;6.576;2022-08-20T06:59:04;18.30;99.90
56115;DHT22;41988;53.020;6.576;2022-08-20T07:01:48;18.30;99.90
56115;DHT22;41988;53.020;6.576;2022-08-20T07:04:32;18.60;99.90
56115;DHT22;41988;53.020;6.576;2022-08-20T07:07:17;18.50;99.90
56115;DHT22;41988;53.020;6.576;2022-08-20T07:10:09;19.20;99.90
56115;DHT22;41988;53.020;6.576;2022-08-20T07:12:53;19.20;99.90
56115;DHT22;41988;53.020;6.576;2022-08-20T07:15:37;19.00;99.90
56115;DHT22;41988;53.020;6.576;2022-08-20T07:18:22;19.40;99.90
56115;DHT22;41988;53.020;6.576;2022-08-20T07:21:06;20.40;99.90
56115;DHT22;41988;53.020;6.576;2022-08-20T07:23:50;21.00;99.90
56115;DHT22;41988;53.020;6.576;2022-08-20T07:26:35;21.70;99.90
56115;DHT22;41988;53.020;6.576;2022-08-20T07:29:20;21.80;99.90
56115;DHT22;41988;53.020;6.576;2022-08-20T07:32:04;21.30;99.90
56115;DHT22;41988;53.020;6.576;2022-08-20T07:35:13;20.80;99.90
56115;DHT22;41988;53.020;6.576;2022-08-20T07:37:57;20.40;99.90
56115;DHT22;41988;53.020;6.576;2022-08-20T07:40:42;20.50;99.90
56115;DHT22;41988;53.020;6.576;2022-08-20T07:43:28;20.70;99.90
56115;DHT22;41988;53.020;6.576;2022-08-20T07:46:15;20.70;99.90
56115;DHT22;41988;53.020;6.576;2022-08-20T07:49:00;21.10;99.90
56115;DHT22;41988;53.020;6.576;2022-08-20T07:51:48;21.60;99.90
56115;DHT22;41988;53.020;6.576;2022-08-20T07:54:32;22.50;99.90
56115;DHT22;41988;53.020;6.576;2022-08-20T07:57:19;22.10;99.90
56115;DHT22;41988;53.020;6.576;2022-08-20T08:00:07;22.90;99.90
56115;DHT22;41988;53.020;6.576;2022-08-20T08:02:52;24.20;99.90
56115;DHT22;41988;53.020;6.576;2022-08-20T08:05:39;23.90;99.90
56115;DHT22;41988;53.020;6.576;2022-08-20T08:08:26;25.90;99.90
56115;DHT22;41988;53.020;6.576;2022-08-20T08:13:58;26.10;99.30
56115;DHT22;41988;53.020;6.576;2022-08-20T08:16:42;26.10;96.90
56115;DHT22;41988;53.020;6.576;2022-08-20T08:19:31;26.50;97.00
56115;DHT22;41988;53.020;6.576;2022-08-20T08:22:19;25.40;94.90
56115;DHT22;41988;53.020;6.576;2022-08-20T08:25:04;25.70;94.80
56115;DHT22;41988;53.020;6.576;2022-08-20T08:27:48;25.50;95.40
56115;DHT22;41988;53.020;6.576;2022-08-20T08:30:33;25.10;94.90
56115;DHT22;41988;53.020;6.576;2022-08-20T08:33:23;24.40;95.80
56115;DHT22;41988;53.020;6.576;2022-08-20T08:36:16;24.00;96.30
56115;DHT22;41988;53.020;6.576;2022-08-20T08:39:00;24.10;95.90
56115;DHT22;41988;53.020;6.576;2022-08-20T08:41:47;23.60;96.30
56115;DHT22;41988;53.020;6.576;2022-08-20T08:44:39;22.90;98.70
56115;DHT22;41988;53.020;6.576;2022-08-20T08:47:27;23.50;97.40
56115;DHT22;41988;53.020;6.576;2022-08-20T08:50:21;23.50;97.60
56115;DHT22;41988;53.020;6.576;2022-08-20T08:55:52;23.70;98.40
56115;DHT22;41988;53.020;6.576;2022-08-20T08:58:36;23.60;97.00
56115;DHT22;41988;53.020;6.576;2022-08-20T09:01:22;23.70;96.80
56115;DHT22;41988;53.020;6.576;2022-08-20T09:04:08;23.70;94.60
56115;DHT22;41988;53.020;6.576;2022-08-20T09:09:40;23.60;95.90
56115;DHT22;41988;53.020;6.576;2022-08-20T09:12:24;23.80;96.30
56115;DHT22;41988;53.020;6.576;2022-08-20T09:15:11;23.80;95.70
56115;DHT22;41988;53.020;6.576;2022-08-20T09:17:56;23.60;93.50
56115;DHT22;41988;53.020;6.576;2022-08-20T09:20:40;23.50;93.60
56115;DHT22;41988;53.020;6.576;2022-08-20T09:23:24;23.80;94.00
56115;DHT22;41988;53.020;6.576;2022-08-20T09:26:08;23.70;92.30
56115;DHT22;41988;53.020;6.576;2022-08-20T09:28:53;23.60;93.40
56115;DHT22;41988;53.020;6.576;2022-08-20T09:34:22;23.50;94.80
56115;DHT22;41988;53.020;6.576;2022-08-20T09:39:51;23.70;93.70
56115;DHT22;41988;53.020;6.576;2022-08-20T09:42:37;23.70;92.60
56115;DHT22;41988;53.020;6.576;2022-08-20T09:45:21;24.00;92.50
56115;DHT22;41988;53.020;6.576;2022-08-20T09:48:06;23.70;92.00
56115;DHT22;41988;53.020;6.576;2022-08-20T09:50:50;23.70;92.70
56115;DHT22;41988;53.020;6.576;2022-08-20T09:53:34;23.60;92.70
56115;DHT22;41988;53.020;6.576;2022-08-20T09:56:18;24.10;91.90
56115;DHT22;41988;53.020;6.576;2022-08-20T09:59:02;24.30;91.10
56115;DHT22;41988;53.020;6.576;2022-08-20T10:04:31;23.40;91.60
56115;DHT22;41988;53.020;6.576;2022-08-20T10:07:15;23.60;91.80
56115;DHT22;41988;53.020;6.576;2022-08-20T10:10:00;23.60;90.70
56115;DHT22;41988;53.020;6.576;2022-08-20T10:12:45;23.50;90.20
56115;DHT22;41988;53.020;6.576;2022-08-20T10:15:30;23.60;90.20
56115;DHT22;41988;53.020;6.576;2022-08-20T10:18:14;23.40;90.80
56115;DHT22;41988;53.020;6.576;2022-08-20T10:20:58;23.40;91.20
56115;DHT22;41988;53.020;6.576;2022-08-20T10:26:28;23.40;90.10
56115;DHT22;41988;53.020;6.576;2022-08-20T10:29:12;23.40;90.50
56115;DHT22;41988;53.020;6.576;2022-08-20T10:34:42;24.00;90.20
56115;DHT22;41988;53.020;6.576;2022-08-20T10:40:12;24.80;86.40
56115;DHT22;41988;53.020;6.576;2022-08-20T10:42:58;25.00;87.90
56115;DHT22;41988;53.020;6.576;2022-08-20T10:51:11;25.00;87.90
56115;DHT22;41988;53.020;6.576;2022-08-20T10:59:25;24.80;83.40
56115;DHT22;41988;53.020;6.576;2022-08-20T11:07:42;25.50;80.30
56115;DHT22;41988;53.020;6.576;2022-08-20T11:10:27;25.40;81.40
56115;DHT22;41988;53.020;6.576;2022-08-20T11:13:12;25.10;82.20
56115;DHT22;41988;53.020;6.576;2022-08-20T11:15:56;24.90;82.30
56115;DHT22;41988;53.020;6.576;2022-08-20T11:18:40;24.90;81.90
56115;DHT22;41988;53.020;6.576;2022-08-20T11:24:09;25.70;78.30
56115;DHT22;41988;53.020;6.576;2022-08-20T11:26:53;25.60;76.20
56115;DHT22;41988;53.020;6.576;2022-08-20T11:32:23;25.50;79.00
56115;DHT22;41988;53.020;6.576;2022-08-20T11:35:08;25.70;77.50
56115;DHT22;41988;53.020;6.576;2022-08-20T11:37:54;25.70;76.70
56115;DHT22;41988;53.020;6.576;2022-08-20T11:43:23;25.30;76.60
56115;DHT22;41988;53.020;6.576;2022-08-20T11:59:51;26.50;74.00
56115;DHT22;41988;53.020;6.576;2022-08-20T12:05:21;26.50;74.10
56115;DHT22;41988;53.020;6.576;2022-08-20T12:13:36;25.80;71.70
56115;DHT22;41988;53.020;6.576;2022-08-20T12:19:05;25.90;73.10
56115;DHT22;41988;53.020;6.576;2022-08-20T12:27:24;25.60;74.10
56115;DHT22;41988;53.020;6.576;2022-08-20T12:30:12;24.80;75.00
56115;DHT22;41988;53.020;6.576;2022-08-20T12:32:57;24.40;76.20
56115;DHT22;41988;53.020;6.576;2022-08-20T12:52:08;26.00;72.70
56115;DHT22;41988;53.020;6.576;2022-08-20T12:54:53;25.50;74.00
56115;DHT22;41988;53.020;6.576;2022-08-20T12:57:44;25.20;75.50
56115;DHT22;41988;53.020;6.576;2022-08-20T13:00:38;24.90;76.00
56115;DHT22;41988;53.020;6.576;2022-08-20T13:11:38;25.40;77.00
56115;DHT22;41988;53.020;6.576;2022-08-20T13:14:23;25.10;73.20
56115;DHT22;41988;53.020;6.576;2022-08-20T13:39:06;24.90;75.00
56115;DHT22;41988;53.020;6.576;2022-08-20T13:44:35;24.60;74.90
56115;DHT22;41988;53.020;6.576;2022-08-20T13:47:26;24.90;76.20
56115;DHT22;41988;53.020;6.576;2022-08-20T13:50:17;24.90;75.70
56115;DHT22;41988;53.020;6.576;2022-08-20T14:04:00;25.20;69.80
56115;DHT22;41988;53.020;6.576;2022-08-20T14:17:52;25.40;69.40
56115;DHT22;41988;53.020;6.576;2022-08-20T14:23:22;25.30;70.90
56115;DHT22;41988;53.020;6.576;2022-08-20T14:37:25;25.80;71.60
56115;DHT22;41988;53.020;6.576;2022-08-20T14:40:13;25.70;70.90
56115;DHT22;41988;53.020;6.576;2022-08-20T15:02:12;25.10;68.70
56115;DHT22;41988;53.020;6.576;2022-08-20T15:07:43;24.60;70.60
56115;DHT22;41988;53.020;6.576;2022-08-20T15:10:31;24.40;70.70
56115;DHT22;41988;53.020;6.576;2022-08-20T15:21:30;23.90;73.00
56115;DHT22;41988;53.020;6.576;2022-08-20T15:27:12;24.00;71.30
56115;DHT22;41988;53.020;6.576;2022-08-20T15:49:11;24.10;71.40
56115;DHT22;41988;53.020;6.576;2022-08-20T16:00:51;24.30;71.30
56115;DHT22;41988;53.020;6.576;2022-08-20T16:12:32;24.60;73.60
56115;DHT22;41988;53.020;6.576;2022-08-20T16:18:17;24.50;73.50
56115;DHT22;41988;53.020;6.576;2022-08-20T16:21:11;24.40;70.00
56115;DHT22;41988;53.020;6.576;2022-08-20T16:35:31;23.80;76.10
56115;DHT22;41988;53.020;6.576;2022-08-20T16:41:43;23.70;76.60
56115;DHT22;41988;53.020;6.576;2022-08-20T16:44:39;23.70;77.40
56115;DHT22;41988;53.020;6.576;2022-08-20T16:47:29;23.50;72.40
56115;DHT22;41988;53.020;6.576;2022-08-20T16:50:37;23.50;78.40
56115;DHT22;41988;53.020;6.576;2022-08-20T16:53:23;23.40;73.10
56115;DHT22;41988;53.020;6.576;2022-08-20T16:56:08;23.40;78.00
56115;DHT22;41988;53.020;6.576;2022-08-20T16:58:53;23.30;79.60
56115;DHT22;41988;53.020;6.576;2022-08-20T17:12:36;22.90;79.40
56115;DHT22;41988;53.020;6.576;2022-08-20T17:15:27;22.60;74.70
56115;DHT22;41988;53.020;6.576;2022-08-20T17:18:28;22.70;81.70
56115;DHT22;41988;53.020;6.576;2022-08-20T17:21:18;22.40;81.80
56115;DHT22;41988;53.020;6.576;2022-08-20T17:24:20;22.20;80.50
56115;DHT22;41988;53.020;6.576;2022-08-20T17:27:09;22.40;82.00
56115;DHT22;41988;53.020;6.576;2022-08-20T17:29:56;22.20;76.20
56115;DHT22;41988;53.020;6.576;2022-08-20T17:32:59;22.10;76.70
56115;DHT22;41988;53.020;6.576;2022-08-20T17:35:51;22.10;78.00
56115;DHT22;41988;53.020;6.576;2022-08-20T17:38:40;22.00;84.70
56115;DHT22;41988;53.020;6.576;2022-08-20T17:41:30;21.90;79.40
56115;DHT22;41988;53.020;6.576;2022-08-20T17:44:28;21.80;85.20
56115;DHT22;41988;53.020;6.576;2022-08-20T17:47:22;21.70;86.70
56115;DHT22;41988;53.020;6.576;2022-08-20T17:50:17;21.60;87.60
56115;DHT22;41988;53.020;6.576;2022-08-20T17:53:30;21.70;86.30
56115;DHT22;41988;53.020;6.576;2022-08-20T17:56:38;21.50;80.90
56115;DHT22;41988;53.020;6.576;2022-08-20T17:59:27;21.50;81.30
56115;DHT22;41988;53.020;6.576;2022-08-20T18:02:15;21.30;87.70
56115;DHT22;41988;53.020;6.576;2022-08-20T18:08:14;21.90;89.90
56115;DHT22;41988;53.020;6.576;2022-08-20T18:11:48;21.30;85.30
56115;DHT22;41988;53.020;6.576;2022-08-20T18:17:26;21.20;91.90
56115;DHT22;41988;53.020;6.576;2022-08-20T18:23:18;21.00;88.50
56115;DHT22;41988;53.020;6.576;2022-08-20T18:26:10;21.00;93.40
56115;DHT22;41988;53.020;6.576;2022-08-20T18:28:59;20.80;94.30
56115;DHT22;41988;53.020;6.576;2022-08-20T18:31:49;20.90;93.90
56115;DHT22;41988;53.020;6.576;2022-08-20T18:34:38;20.80;96.20
56115;DHT22;41988;53.020;6.576;2022-08-20T18:37:26;20.80;96.60
56115;DHT22;41988;53.020;6.576;2022-08-20T18:40:18;20.60;97.60
56115;DHT22;41988;53.020;6.576;2022-08-20T18:43:23;20.50;98.50
56115;DHT22;41988;53.020;6.576;2022-08-20T18:46:18;20.40;94.30
56115;DHT22;41988;53.020;6.576;2022-08-20T18:49:06;20.30;95.00
56115;DHT22;41988;53.020;6.576;2022-08-20T18:57:29;20.00;99.90
56115;DHT22;41988;53.020;6.576;2022-08-20T19:00:19;20.00;99.90
56115;DHT22;41988;53.020;6.576;2022-08-20T19:18:06;19.70;99.90
56115;DHT22;41988;53.020;6.576;2022-08-20T19:20:56;19.40;99.90
56115;DHT22;41988;53.020;6.576;2022-08-20T19:23:48;19.30;99.90
56115;DHT22;41988;53.020;6.576;2022-08-20T19:26:47;19.30;99.90
56115;DHT22;41988;53.020;6.576;2022-08-20T19:29:40;19.30;99.90
56115;DHT22;41988;53.020;6.576;2022-08-20T19:32:27;19.10;99.90
56115;DHT22;41988;53.020;6.576;2022-08-20T19:35:16;19.30;99.90
56115;DHT22;41988;53.020;6.576;2022-08-20T19:38:01;19.30;99.90
56115;DHT22;41988;53.020;6.576;2022-08-20T19:40:46;19.30;99.90
56115;DHT22;41988;53.020;6.576;2022-08-20T19:43:41;19.10;99.90
56115;DHT22;41988;53.020;6.576;2022-08-20T19:49:36;18.90;99.90
56115;DHT22;41988;53.020;6.576;2022-08-20T19:52:41;18.80;99.90
56115;DHT22;41988;53.020;6.576;2022-08-20T19:58:17;18.70;99.90
56115;DHT22;41988;53.020;6.576;2022-08-20T20:01:03;18.60;99.90
56115;DHT22;41988;53.020;6.576;2022-08-20T20:06:44;18.40;99.90
56115;DHT22;41988;53.020;6.576;2022-08-20T20:12:15;18.30;99.90
56115;DHT22;41988;53.020;6.576;2022-08-20T20:15:00;18.00;99.90
56115;DHT22;41988;53.020;6.576;2022-08-20T20:17:45;17.90;99.90
56115;DHT22;41988;53.020;6.576;2022-08-20T20:20:32;18.00;99.90
56115;DHT22;41988;53.020;6.576;2022-08-20T20:23:27;17.90;99.90
56115;DHT22;41988;53.020;6.576;2022-08-20T20:26:16;17.80;99.90
56115;DHT22;41988;53.020;6.576;2022-08-20T20:29:20;17.80;99.90
56115;DHT22;41988;53.020;6.576;2022-08-20T20:32:20;17.60;99.90
56115;DHT22;41988;53.020;6.576;2022-08-20T20:37:58;17.50;99.90
56115;DHT22;41988;53.020;6.576;2022-08-20T20:40:50;17.60;99.90
56115;DHT22;41988;53.020;6.576;2022-08-20T20:43:37;17.50;99.90
56115;DHT22;41988;53.020;6.576;2022-08-20T20:46:24;17.50;99.90
56115;DHT22;41988;53.020;6.576;2022-08-20T20:49:21;17.40;99.90
56115;DHT22;41988;53.020;6.576;2022-08-20T20:52:17;17.20;99.90
56115;DHT22;41988;53.020;6.576;2022-08-20T20:58:04;17.40;99.90
56115;DHT22;41988;53.020;6.576;2022-08-20T21:00:48;17.60;99.90
56115;DHT22;41988;53.020;6.576;2022-08-20T21:03:33;17.40;99.90
56115;DHT22;41988;53.020;6.576;2022-08-20T21:06:19;17.40;99.90
56115;DHT22;41988;53.020;6.576;2022-08-20T21:09:05;18.10;99.90
56115;DHT22;41988;53.020;6.576;2022-08-20T21:11:50;17.50;99.90
56115;DHT22;41988;53.020;6.576;2022-08-20T21:14:35;17.80;99.90
56115;DHT22;41988;53.020;6.576;2022-08-20T21:17:21;17.60;99.90
56115;DHT22;41988;53.020;6.576;2022-08-20T21:20:06;17.30;99.90
56115;DHT22;41988;53.020;6.576;2022-08-20T21:22:52;17.30;99.90
56115;DHT22;41988;53.020;6.576;2022-08-20T21:25:36;16.90;99.90
56115;DHT22;41988;53.020;6.576;2022-08-20T21:28:20;17.30;99.90
56115;DHT22;41988;53.020;6.576;2022-08-20T21:33:49;17.40;99.90
56115;DHT22;41988;53.020;6.576;2022-08-20T21:36:34;17.20;99.90
56115;DHT22;41988;53.020;6.576;2022-08-20T21:39:18;17.90;99.90
56115;DHT22;41988;53.020;6.576;2022-08-20T21:42:04;17.20;99.90
56115;DHT22;41988;53.020;6.576;2022-08-20T21:44:48;17.20;99.90
56115;DHT22;41988;53.020;6.576;2022-08-20T21:47:34;17.00;99.90
56115;DHT22;41988;53.020;6.576;2022-08-20T21:50:19;17.20;99.90
56115;DHT22;41988;53.020;6.576;2022-08-20T21:53:03;17.10;99.90
56115;DHT22;41988;53.020;6.576;2022-08-20T21:55:47;17.00;99.90
56115;DHT22;41988;53.020;6.576;2022-08-20T21:58:31;17.10;99.90
56115;DHT22;41988;53.020;6.576;2022-08-20T22:01:16;18.00;99.90
56115;DHT22;41988;53.020;6.576;2022-08-20T22:06:46;17.10;99.90
56115;DHT22;41988;53.020;6.576;2022-08-20T22:09:30;16.80;99.90
56115;DHT22;41988;53.020;6.576;2022-08-20T22:12:22;17.00;99.90
56115;DHT22;41988;53.020;6.576;2022-08-20T22:15:07;16.80;99.90
56115;DHT22;41988;53.020;6.576;2022-08-20T22:17:52;16.80;99.90
56115;DHT22;41988;53.020;6.576;2022-08-20T22:20:36;16.60;99.90
56115;DHT22;41988;53.020;6.576;2022-08-20T22:26:06;16.60;99.90
56115;DHT22;41988;53.020;6.576;2022-08-20T22:28:51;16.50;99.90
56115;DHT22;41988;53.020;6.576;2022-08-20T22:31:38;16.50;99.90
56115;DHT22;41988;53.020;6.576;2022-08-20T22:34:23;16.30;99.90
56115;DHT22;41988;53.020;6.576;2022-08-20T22:37:09;16.30;99.90
56115;DHT22;41988;53.020;6.576;2022-08-20T22:42:39;16.30;99.90
56115;DHT22;41988;53.020;6.576;2022-08-20T22:45:23;16.30;99.90
56115;DHT22;41988;53.020;6.576;2022-08-20T22:48:07;16.20;99.90
56115;DHT22;41988;53.020;6.576;2022-08-20T22:50:52;16.00;99.90
56115;DHT22;41988;53.020;6.576;2022-08-20T22:53:36;16.20;99.90
56115;DHT22;41988;53.020;6.576;2022-08-20T22:56:21;16.20;99.90
56115;DHT22;41988;53.020;6.576;2022-08-20T22:59:05;16.10;99.90
56115;DHT22;41988;53.020;6.576;2022-08-20T23:01:50;15.90;99.90
56115;DHT22;41988;53.020;6.576;2022-08-20T23:04:35;16.00;99.90
56115;DHT22;41988;53.020;6.576;2022-08-20T23:07:19;16.10;99.90
56115;DHT22;41988;53.020;6.576;2022-08-20T23:10:04;15.80;99.90
56115;DHT22;41988;53.020;6.576;2022-08-20T23:12:48;16.00;99.90
56115;DHT22;41988;53.020;6.576;2022-08-20T23:15:36;15.80;99.90
56115;DHT22;41988;53.020;6.576;2022-08-20T23:18:21;15.80;99.90
56115;DHT22;41988;53.020;6.576;2022-08-20T23:29:22;15.70;99.90
56115;DHT22;41988;53.020;6.576;2022-08-20T23:34:51;15.80;99.90
56115;DHT22;41988;53.020;6.576;2022-08-20T23:37:41;16.30;99.90
56115;DHT22;41988;53.020;6.576;2022-08-20T23:40:27;15.90;99.90
56115;DHT22;41988;53.020;6.576;2022-08-20T23:43:11;15.70;99.90
56115;DHT22;41988;53.020;6.576;2022-08-20T23:45:58;15.40;99.90
56115;DHT22;41988;53.020;6.576;2022-08-20T23:48:44;15.70;99.90
56115;DHT22;41988;53.020;6.576;2022-08-20T23:51:28;15.50;99.90
56115;DHT22;41988;53.020;6.576;2022-08-20T23:56:57;15.20;99.90